Ferry Katsuragi — JI3611 — position and weather

sailwx.info

Track history (hours):
 
Tides and Currents Weather Stations Pressure Air Temp Water Temp Dewpoint Dewpoint Depression Visibility Wind Speed Wind Dir Waves Ship Positions

Ferry Katsuragi

Last reported at 2017-Jan-17 18:28 UTC. Time now 2017-Jan-17 21:25 UTC.
Position N 34°09' E 134°57'.

Length 108 m; draft 4 m.

Type: Passenger vessel. MMSI: 431301245.

Date/timePositionNaut miles runAvg speedWind from/ knotsBaromVisibWave heightAir tempDewpointWater temp
2017-Jan-17 18:28N 34°09' E 134°57'1111.6
2017-Jan-17 17:34N 34°13' E 135°09'0 0.0
2017-Jan-17 16:34N 34°13' E 135°09'0 0.0
2017-Jan-17 15:34N 34°13' E 135°09'7 6.9
2017-Jan-17 14:33N 34°11' E 135°01'3 0.7
2017-Jan-17 10:33N 34°12' E 135°04'4 4.0
2017-Jan-17 09:33N 34°13' E 135°09'8 1.8
2017-Jan-17 05:18N 34°11' E 134°60'810.2
2017-Jan-17 04:34N 34°13' E 135°09'7 6.6
2017-Jan-17 03:32N 34°11' E 135°01'6 1.8
2017-Jan-17 00:22N 34°09' E 134°54'1215.2
2017-Jan-16 23:33N 34°13' E 135°08'2 1.7
2017-Jan-16 22:33N 34°13' E 135°06'10 2.5
2017-Jan-16 18:33N 34°08' E 134°55'1212.0
2017-Jan-16 17:33N 34°13' E 135°09'0 0.0
2017-Jan-16 16:34N 34°13' E 135°09'0 0.0
2017-Jan-16 15:33N 34°13' E 135°09'7 7.1
2017-Jan-16 14:32N 34°11' E 135°00'3 0.9
2017-Jan-16 10:34N 34°12' E 135°04'4 3.9
2017-Jan-16 09:34N 34°13' E 135°09'11 2.7
2017-Jan-16 05:28N 34°09' E 134°56'1112.2
2017-Jan-16 04:33N 34°13' E 135°09'6 5.8
2017-Jan-16 03:33N 34°12' E 135°02'5 1.7
2017-Jan-16 00:16N 34°09' E 134°56'1114.9
2017-Jan-15 23:33N 34°13' E 135°08'1 1.3
2017-Jan-15 22:33N 34°13' E 135°07'10 2.5
2017-Jan-15 18:33N 34°09' E 134°55'1211.8
2017-Jan-15 17:33N 34°13' E 135°09'0 0.0
2017-Jan-15 16:33N 34°13' E 135°09'0 0.0
2017-Jan-15 15:34N 34°13' E 135°09'6 6.4
2017-Jan-15 14:33N 34°11' E 135°01'3 0.7
2017-Jan-15 10:33N 34°12' E 135°04'4 3.8
2017-Jan-15 09:34N 34°13' E 135°09'12 2.9
2017-Jan-15 05:32N 34°09' E 134°55'1212.0
2017-Jan-15 04:34N 34°13' E 135°09'6 5.7
2017-Jan-15 03:33N 34°12' E 135°02'5 1.5
2017-Jan-15 00:14N 34°10' E 134°56'1015.4
2017-Jan-14 23:33N 34°13' E 135°08'2 1.9
2017-Jan-14 22:33N 34°13' E 135°06'9 2.1
2017-Jan-14 18:28N 34°10' E 134°56'1111.6
2017-Jan-14 17:34N 34°13' E 135°09'0 0.0
2017-Jan-14 16:33N 34°13' E 135°09'0 0.0
2017-Jan-14 15:34N 34°13' E 135°09'7 6.6
2017-Jan-14 14:33N 34°11' E 135°01'3 0.7
2017-Jan-14 10:34N 34°12' E 135°04'4 3.7
2017-Jan-14 09:34N 34°13' E 135°09'11 2.6
2017-Jan-14 05:27N 34°10' E 134°56'1111.8
2017-Jan-14 04:33N 34°13' E 135°09'6 5.7
2017-Jan-14 03:33N 34°11' E 135°02'6 1.4
2017-Jan-13 23:33N 34°13' E 135°09'2 1.6
2017-Jan-13 22:33N 34°13' E 135°07'9 2.3
2017-Jan-13 18:31N 34°09' E 134°56'1111.5
2017-Jan-13 17:33N 34°13' E 135°09'0 0.0
2017-Jan-13 16:34N 34°13' E 135°09'0 0.0
2017-Jan-13 15:33N 34°13' E 135°09'6 6.3
2017-Jan-13 14:33N 34°11' E 135°01'3 0.7
2017-Jan-13 10:33N 34°12' E 135°04'3 3.5
2017-Jan-13 09:33N 34°13' E 135°09'10 2.4
2017-Jan-13 05:26N 34°10' E 134°57'1011.3
2017-Jan-13 04:34N 34°13' E 135°09'5 5.4
2017-Jan-13 03:33N 34°12' E 135°02'6 1.9
2017-Jan-13 00:18N 34°09' E 134°55'1115.2
2017-Jan-12 23:33N 34°13' E 135°08'2 1.9
2017-Jan-12 22:33N 34°13' E 135°06'8 1.9
2017-Jan-12 18:27N 34°10' E 134°57'1011.1
2017-Jan-12 17:34N 34°13' E 135°09'0 0.0
2017-Jan-12 16:34N 34°13' E 135°09'0 0.0
2017-Jan-12 15:33N 34°13' E 135°09'7 7.0
2017-Jan-12 14:34N 34°11' E 135°01'3 0.8
2017-Jan-12 10:33N 34°12' E 135°04'4 3.8
2017-Jan-12 09:33N 34°13' E 135°09'10 2.5
2017-Jan-12 05:26N 34°09' E 134°57'1011.8
2017-Jan-12 04:33N 34°13' E 135°09'7 6.5
2017-Jan-12 03:32N 34°10' E 135°02'5 1.6
2017-Jan-12 00:19N 34°09' E 134°55'1115.1
2017-Jan-11 23:34N 34°13' E 135°08'2 1.9
2017-Jan-11 22:33N 34°13' E 135°06'9 2.3
2017-Jan-11 18:32N 34°09' E 134°56'1111.6
2017-Jan-11 17:33N 34°13' E 135°09'0 0.0
2017-Jan-11 16:33N 34°13' E 135°09'0 0.0
2017-Jan-11 15:33N 34°13' E 135°09'7 6.7
2017-Jan-11 14:33N 34°11' E 135°01'3 0.8
2017-Jan-11 10:33N 34°12' E 135°04'3 3.4
2017-Jan-11 09:33N 34°13' E 135°08'10 2.6
2017-Jan-11 05:29N 34°09' E 134°57'1111.6
2017-Jan-11 04:33N 34°13' E 135°09'6 5.9
2017-Jan-11 03:33N 34°12' E 135°02'6 1.4
2017-Jan-10 23:33N 34°13' E 135°08'1 1.3
2017-Jan-10 22:33N 34°13' E 135°07'10 2.5
2017-Jan-10 18:33N 34°10' E 134°55'1111.5
2017-Jan-10 17:33N 34°13' E 135°09'0 0.0
2017-Jan-10 16:33N 34°13' E 135°09'0 0.0
2017-Jan-10 15:33N 34°13' E 135°09'7 6.8
2017-Jan-10 14:33N 34°10' E 135°01'3 0.8
2017-Jan-10 10:34N 34°12' E 135°04'4 3.7
2017-Jan-10 09:34N 34°13' E 135°09'10 2.6
2017-Jan-10 05:28N 34°09' E 134°57'1111.5
2017-Jan-10 04:33N 34°13' E 135°09'6 6.2
2017-Jan-10 03:33N 34°11' E 135°01'7 2.1
2017-Jan-10 00:23N 34°09' E 134°54'1214.8
2017-Jan-09 23:34N 34°13' E 135°08'2 1.6
2017-Jan-09 22:34N 34°13' E 135°06'9 2.3
2017-Jan-09 18:31N 34°09' E 134°56'1111.6
2017-Jan-09 17:33N 34°13' E 135°09'0 0.0
2017-Jan-09 16:33N 34°13' E 135°09'0 0.0
2017-Jan-09 15:33N 34°13' E 135°09'7 6.8
2017-Jan-09 14:33N 34°11' E 135°01'5 1.6
2017-Jan-09 11:07N 34°09' E 134°55'814.6
2017-Jan-09 10:34N 34°12' E 135°04'4 4.1
2017-Jan-09 09:33N 34°13' E 135°09'11 2.6
2017-Jan-09 05:29N 34°09' E 134°57'1111.7
2017-Jan-09 04:33N 34°13' E 135°09'7 6.5
2017-Jan-09 03:33N 34°11' E 135°01'3 0.9
2017-Jan-09 00:10N 34°10' E 134°58'914.8
2017-Jan-08 23:33N 34°13' E 135°08'2 1.9
2017-Jan-08 22:33N 34°13' E 135°06'18 5.3
2017-Jan-08 19:12N 34°06' E 134°46'1013.6
2017-Jan-08 18:27N 34°10' E 134°57'1011.0
2017-Jan-08 17:33N 34°13' E 135°09'0 0.0
2017-Jan-08 16:33N 34°13' E 135°09'0 0.0
2017-Jan-08 15:33N 34°13' E 135°09'7 6.7
2017-Jan-08 14:33N 34°11' E 135°01'11 3.6
2017-Jan-08 11:31N 34°06' E 134°49'1414.7
2017-Jan-08 10:33N 34°12' E 135°04'4 3.8
2017-Jan-08 09:33N 34°13' E 135°09'9 2.1
2017-Jan-08 05:23N 34°11' E 134°58'910.5
2017-Jan-08 04:33N 34°13' E 135°09'6 6.2
2017-Jan-08 03:33N 34°11' E 135°02'6 1.8
2017-Jan-08 00:18N 34°10' E 134°55'1115.4
2017-Jan-07 23:33N 34°13' E 135°08'2 1.9
2017-Jan-07 22:33N 34°13' E 135°06'20 6.0
2017-Jan-07 19:15N 34°06' E 134°43'1114.1
2017-Jan-07 18:30N 34°09' E 134°55'  
Track history (hours):
 
Tides and Currents Weather Stations Pressure Air Temp Water Temp Dewpoint Dewpoint Depression Visibility Wind Speed Wind Dir Waves Ship Positions

Ferry Katsuragi

Last reported at 2017-Jan-17 18:28 UTC. Time now 2017-Jan-17 21:25 UTC.
Position N 34°09' E 134°57'.

Length 108 m; draft 4 m.

Type: Passenger vessel. MMSI: 431301245.

Date/timePositionNaut miles runAvg speedWind from/ knotsBaromVisibWave heightAir tempDewpointWater temp
2017-Jan-17 18:28N 34°09' E 134°57'1111.6
2017-Jan-17 17:34N 34°13' E 135°09'0 0.0
2017-Jan-17 16:34N 34°13' E 135°09'0 0.0
2017-Jan-17 15:34N 34°13' E 135°09'7 6.9
2017-Jan-17 14:33N 34°11' E 135°01'3 0.7
2017-Jan-17 10:33N 34°12' E 135°04'4 4.0
2017-Jan-17 09:33N 34°13' E 135°09'8 1.8
2017-Jan-17 05:18N 34°11' E 134°60'810.2
2017-Jan-17 04:34N 34°13' E 135°09'7 6.6
2017-Jan-17 03:32N 34°11' E 135°01'6 1.8
2017-Jan-17 00:22N 34°09' E 134°54'1215.2
2017-Jan-16 23:33N 34°13' E 135°08'2 1.7
2017-Jan-16 22:33N 34°13' E 135°06'10 2.5
2017-Jan-16 18:33N 34°08' E 134°55'1212.0
2017-Jan-16 17:33N 34°13' E 135°09'0 0.0
2017-Jan-16 16:34N 34°13' E 135°09'0 0.0
2017-Jan-16 15:33N 34°13' E 135°09'7 7.1
2017-Jan-16 14:32N 34°11' E 135°00'3 0.9
2017-Jan-16 10:34N 34°12' E 135°04'4 3.9
2017-Jan-16 09:34N 34°13' E 135°09'11 2.7
2017-Jan-16 05:28N 34°09' E 134°56'1112.2
2017-Jan-16 04:33N 34°13' E 135°09'6 5.8
2017-Jan-16 03:33N 34°12' E 135°02'5 1.7
2017-Jan-16 00:16N 34°09' E 134°56'1114.9
2017-Jan-15 23:33N 34°13' E 135°08'1 1.3
2017-Jan-15 22:33N 34°13' E 135°07'10 2.5
2017-Jan-15 18:33N 34°09' E 134°55'1211.8
2017-Jan-15 17:33N 34°13' E 135°09'0 0.0
2017-Jan-15 16:33N 34°13' E 135°09'0 0.0
2017-Jan-15 15:34N 34°13' E 135°09'6 6.4
2017-Jan-15 14:33N 34°11' E 135°01'3 0.7
2017-Jan-15 10:33N 34°12' E 135°04'4 3.8
2017-Jan-15 09:34N 34°13' E 135°09'12 2.9
2017-Jan-15 05:32N 34°09' E 134°55'1212.0
2017-Jan-15 04:34N 34°13' E 135°09'6 5.7
2017-Jan-15 03:33N 34°12' E 135°02'5 1.5
2017-Jan-15 00:14N 34°10' E 134°56'1015.4
2017-Jan-14 23:33N 34°13' E 135°08'2 1.9
2017-Jan-14 22:33N 34°13' E 135°06'9 2.1
2017-Jan-14 18:28N 34°10' E 134°56'1111.6
2017-Jan-14 17:34N 34°13' E 135°09'0 0.0
2017-Jan-14 16:33N 34°13' E 135°09'0 0.0
2017-Jan-14 15:34N 34°13' E 135°09'7 6.6
2017-Jan-14 14:33N 34°11' E 135°01'3 0.7
2017-Jan-14 10:34N 34°12' E 135°04'4 3.7
2017-Jan-14 09:34N 34°13' E 135°09'11 2.6
2017-Jan-14 05:27N 34°10' E 134°56'1111.8
2017-Jan-14 04:33N 34°13' E 135°09'6 5.7
2017-Jan-14 03:33N 34°11' E 135°02'6 1.4
2017-Jan-13 23:33N 34°13' E 135°09'2 1.6
2017-Jan-13 22:33N 34°13' E 135°07'9 2.3
2017-Jan-13 18:31N 34°09' E 134°56'1111.5
2017-Jan-13 17:33N 34°13' E 135°09'0 0.0
2017-Jan-13 16:34N 34°13' E 135°09'0 0.0
2017-Jan-13 15:33N 34°13' E 135°09'6 6.3
2017-Jan-13 14:33N 34°11' E 135°01'3 0.7
2017-Jan-13 10:33N 34°12' E 135°04'3 3.5
2017-Jan-13 09:33N 34°13' E 135°09'10 2.4
2017-Jan-13 05:26N 34°10' E 134°57'1011.3
2017-Jan-13 04:34N 34°13' E 135°09'5 5.4
2017-Jan-13 03:33N 34°12' E 135°02'6 1.9
2017-Jan-13 00:18N 34°09' E 134°55'1115.2
2017-Jan-12 23:33N 34°13' E 135°08'2 1.9
2017-Jan-12 22:33N 34°13' E 135°06'8 1.9
2017-Jan-12 18:27N 34°10' E 134°57'1011.1
2017-Jan-12 17:34N 34°13' E 135°09'0 0.0
2017-Jan-12 16:34N 34°13' E 135°09'0 0.0
2017-Jan-12 15:33N 34°13' E 135°09'7 7.0
2017-Jan-12 14:34N 34°11' E 135°01'3 0.8
2017-Jan-12 10:33N 34°12' E 135°04'4 3.8
2017-Jan-12 09:33N 34°13' E 135°09'10 2.5
2017-Jan-12 05:26N 34°09' E 134°57'1011.8
2017-Jan-12 04:33N 34°13' E 135°09'7 6.5
2017-Jan-12 03:32N 34°10' E 135°02'5 1.6
2017-Jan-12 00:19N 34°09' E 134°55'1115.1
2017-Jan-11 23:34N 34°13' E 135°08'2 1.9
2017-Jan-11 22:33N 34°13' E 135°06'9 2.3
2017-Jan-11 18:32N 34°09' E 134°56'1111.6
2017-Jan-11 17:33N 34°13' E 135°09'0 0.0
2017-Jan-11 16:33N 34°13' E 135°09'0 0.0
2017-Jan-11 15:33N 34°13' E 135°09'7 6.7
2017-Jan-11 14:33N 34°11' E 135°01'3 0.8
2017-Jan-11 10:33N 34°12' E 135°04'3 3.4
2017-Jan-11 09:33N 34°13' E 135°08'10 2.6
2017-Jan-11 05:29N 34°09' E 134°57'1111.6
2017-Jan-11 04:33N 34°13' E 135°09'6 5.9
2017-Jan-11 03:33N 34°12' E 135°02'6 1.4
2017-Jan-10 23:33N 34°13' E 135°08'1 1.3
2017-Jan-10 22:33N 34°13' E 135°07'10 2.5
2017-Jan-10 18:33N 34°10' E 134°55'1111.5
2017-Jan-10 17:33N 34°13' E 135°09'0 0.0
2017-Jan-10 16:33N 34°13' E 135°09'0 0.0
2017-Jan-10 15:33N 34°13' E 135°09'7 6.8
2017-Jan-10 14:33N 34°10' E 135°01'3 0.8
2017-Jan-10 10:34N 34°12' E 135°04'4 3.7
2017-Jan-10 09:34N 34°13' E 135°09'10 2.6
2017-Jan-10 05:28N 34°09' E 134°57'1111.5
2017-Jan-10 04:33N 34°13' E 135°09'6 6.2
2017-Jan-10 03:33N 34°11' E 135°01'7 2.1
2017-Jan-10 00:23N 34°09' E 134°54'1214.8
2017-Jan-09 23:34N 34°13' E 135°08'2 1.6
2017-Jan-09 22:34N 34°13' E 135°06'9 2.3
2017-Jan-09 18:31N 34°09' E 134°56'1111.6
2017-Jan-09 17:33N 34°13' E 135°09'0 0.0
2017-Jan-09 16:33N 34°13' E 135°09'0 0.0
2017-Jan-09 15:33N 34°13' E 135°09'7 6.8
2017-Jan-09 14:33N 34°11' E 135°01'5 1.6
2017-Jan-09 11:07N 34°09' E 134°55'814.6
2017-Jan-09 10:34N 34°12' E 135°04'4 4.1
2017-Jan-09 09:33N 34°13' E 135°09'11 2.6
2017-Jan-09 05:29N 34°09' E 134°57'1111.7
2017-Jan-09 04:33N 34°13' E 135°09'7 6.5
2017-Jan-09 03:33N 34°11' E 135°01'3 0.9
2017-Jan-09 00:10N 34°10' E 134°58'914.8
2017-Jan-08 23:33N 34°13' E 135°08'2 1.9
2017-Jan-08 22:33N 34°13' E 135°06'18 5.3
2017-Jan-08 19:12N 34°06' E 134°46'1013.6
2017-Jan-08 18:27N 34°10' E 134°57'1011.0
2017-Jan-08 17:33N 34°13' E 135°09'0 0.0
2017-Jan-08 16:33N 34°13' E 135°09'0 0.0
2017-Jan-08 15:33N 34°13' E 135°09'7 6.7
2017-Jan-08 14:33N 34°11' E 135°01'11 3.6
2017-Jan-08 11:31N 34°06' E 134°49'1414.7
2017-Jan-08 10:33N 34°12' E 135°04'4 3.8
2017-Jan-08 09:33N 34°13' E 135°09'9 2.1
2017-Jan-08 05:23N 34°11' E 134°58'910.5
2017-Jan-08 04:33N 34°13' E 135°09'6 6.2
2017-Jan-08 03:33N 34°11' E 135°02'6 1.8
2017-Jan-08 00:18N 34°10' E 134°55'1115.4
2017-Jan-07 23:33N 34°13' E 135°08'2 1.9
2017-Jan-07 22:33N 34°13' E 135°06'20 6.0
2017-Jan-07 19:15N 34°06' E 134°43'1114.1
2017-Jan-07 18:30N 34°09' E 134°55'  

Dump ship's entire track history